sensor_id;sensor_type;location;lat;lon;timestamp;P1;durP1;ratioP1;P2;durP2;ratioP2
64550;SDS011;50945;44.472;-123.352;2023-06-10T00:02:19;1.80;;;1.27;;
64550;SDS011;50945;44.472;-123.352;2023-06-10T00:04:46;1.25;;;1.15;;
64550;SDS011;50945;44.472;-123.352;2023-06-10T00:07:13;1.25;;;1.20;;
64550;SDS011;50945;44.472;-123.352;2023-06-10T00:09:39;1.92;;;1.25;;
64550;SDS011;50945;44.472;-123.352;2023-06-10T00:14:42;1.40;;;1.30;;
64550;SDS011;50945;44.472;-123.352;2023-06-10T00:17:08;1.40;;;1.30;;
64550;SDS011;50945;44.472;-123.352;2023-06-10T00:19:34;3.28;;;1.50;;
64550;SDS011;50945;44.472;-123.352;2023-06-10T00:22:01;2.28;;;1.52;;
64550;SDS011;50945;44.472;-123.352;2023-06-10T00:24:28;1.92;;;1.50;;
64550;SDS011;50945;44.472;-123.352;2023-06-10T00:26:54;1.65;;;1.50;;
64550;SDS011;50945;44.472;-123.352;2023-06-10T00:29:20;1.58;;;1.23;;
64550;SDS011;50945;44.472;-123.352;2023-06-10T00:31:46;1.40;;;1.40;;
64550;SDS011;50945;44.472;-123.352;2023-06-10T00:34:13;1.20;;;1.20;;
64550;SDS011;50945;44.472;-123.352;2023-06-10T00:36:39;1.40;;;1.40;;
64550;SDS011;50945;44.472;-123.352;2023-06-10T00:39:05;1.30;;;1.20;;
64550;SDS011;50945;44.472;-123.352;2023-06-10T00:41:32;1.40;;;1.10;;
64550;SDS011;50945;44.472;-123.352;2023-06-10T00:43:59;1.40;;;1.40;;
64550;SDS011;50945;44.472;-123.352;2023-06-10T00:46:25;1.45;;;1.35;;
64550;SDS011;50945;44.472;-123.352;2023-06-10T00:48:52;1.30;;;1.20;;
64550;SDS011;50945;44.472;-123.352;2023-06-10T00:51:18;1.85;;;1.17;;
64550;SDS011;50945;44.472;-123.352;2023-06-10T00:53:45;1.23;;;1.13;;
64550;SDS011;50945;44.472;-123.352;2023-06-10T00:56:13;3.28;;;1.23;;
64550;SDS011;50945;44.472;-123.352;2023-06-10T00:58:40;4.72;;;1.40;;
64550;SDS011;50945;44.472;-123.352;2023-06-10T01:01:06;1.42;;;1.40;;
64550;SDS011;50945;44.472;-123.352;2023-06-10T01:03:36;1.27;;;1.23;;
64550;SDS011;50945;44.472;-123.352;2023-06-10T01:11:28;1.73;;;1.10;;
64550;SDS011;50945;44.472;-123.352;2023-06-10T01:14:00;1.17;;;1.17;;
64550;SDS011;50945;44.472;-123.352;2023-06-10T01:16:26;1.60;;;1.30;;
64550;SDS011;50945;44.472;-123.352;2023-06-10T01:18:53;2.05;;;1.35;;
64550;SDS011;50945;44.472;-123.352;2023-06-10T01:21:20;1.88;;;1.08;;
64550;SDS011;50945;44.472;-123.352;2023-06-10T01:23:50;4.70;;;1.38;;
64550;SDS011;50945;44.472;-123.352;2023-06-10T01:26:22;1.83;;;0.88;;
64550;SDS011;50945;44.472;-123.352;2023-06-10T01:29:03;1.52;;;1.23;;
64550;SDS011;50945;44.472;-123.352;2023-06-10T01:34:15;3.60;;;1.25;;
64550;SDS011;50945;44.472;-123.352;2023-06-10T01:36:47;1.73;;;1.10;;
64550;SDS011;50945;44.472;-123.352;2023-06-10T01:39:15;1.40;;;1.40;;
64550;SDS011;50945;44.472;-123.352;2023-06-10T01:41:43;1.23;;;1.10;;
64550;SDS011;50945;44.472;-123.352;2023-06-10T01:44:10;1.40;;;1.30;;
64550;SDS011;50945;44.472;-123.352;2023-06-10T01:46:36;2.20;;;1.48;;
64550;SDS011;50945;44.472;-123.352;2023-06-10T01:49:02;2.15;;;1.25;;
64550;SDS011;50945;44.472;-123.352;2023-06-10T01:51:28;1.17;;;1.15;;
64550;SDS011;50945;44.472;-123.352;2023-06-10T01:53:56;1.40;;;1.30;;
64550;SDS011;50945;44.472;-123.352;2023-06-10T01:56:23;1.08;;;1.08;;
64550;SDS011;50945;44.472;-123.352;2023-06-10T01:58:49;3.55;;;1.63;;
64550;SDS011;50945;44.472;-123.352;2023-06-10T02:03:41;1.10;;;1.10;;
64550;SDS011;50945;44.472;-123.352;2023-06-10T02:06:08;2.85;;;1.20;;
64550;SDS011;50945;44.472;-123.352;2023-06-10T02:08:34;2.78;;;1.23;;
64550;SDS011;50945;44.472;-123.352;2023-06-10T02:11:00;1.40;;;1.30;;
64550;SDS011;50945;44.472;-123.352;2023-06-10T02:13:26;1.20;;;1.20;;
64550;SDS011;50945;44.472;-123.352;2023-06-10T02:15:52;3.20;;;1.30;;
64550;SDS011;50945;44.472;-123.352;2023-06-10T02:18:19;1.30;;;1.15;;
64550;SDS011;50945;44.472;-123.352;2023-06-10T02:20:46;1.80;;;1.10;;
64550;SDS011;50945;44.472;-123.352;2023-06-10T02:23:12;1.23;;;1.05;;
64550;SDS011;50945;44.472;-123.352;2023-06-10T02:25:38;1.20;;;0.93;;
64550;SDS011;50945;44.472;-123.352;2023-06-10T02:28:05;1.75;;;1.45;;
64550;SDS011;50945;44.472;-123.352;2023-06-10T02:30:31;2.33;;;1.30;;
64550;SDS011;50945;44.472;-123.352;2023-06-10T02:32:57;1.85;;;1.30;;
64550;SDS011;50945;44.472;-123.352;2023-06-10T02:37:50;2.10;;;1.25;;
64550;SDS011;50945;44.472;-123.352;2023-06-10T02:40:16;1.48;;;1.38;;
64550;SDS011;50945;44.472;-123.352;2023-06-10T02:42:42;3.00;;;1.20;;
64550;SDS011;50945;44.472;-123.352;2023-06-10T02:45:08;2.50;;;1.08;;
64550;SDS011;50945;44.472;-123.352;2023-06-10T02:47:37;1.92;;;1.00;;
64550;SDS011;50945;44.472;-123.352;2023-06-10T02:50:07;1.02;;;0.93;;
64550;SDS011;50945;44.472;-123.352;2023-06-10T02:52:33;1.85;;;1.20;;
64550;SDS011;50945;44.472;-123.352;2023-06-10T02:54:59;1.55;;;0.98;;
64550;SDS011;50945;44.472;-123.352;2023-06-10T02:57:26;1.98;;;1.02;;
64550;SDS011;50945;44.472;-123.352;2023-06-10T02:59:52;1.40;;;1.30;;
64550;SDS011;50945;44.472;-123.352;2023-06-10T03:04:45;1.20;;;1.00;;
64550;SDS011;50945;44.472;-123.352;2023-06-10T03:07:11;2.08;;;1.42;;
64550;SDS011;50945;44.472;-123.352;2023-06-10T03:09:37;2.67;;;1.38;;
64550;SDS011;50945;44.472;-123.352;2023-06-10T03:12:04;1.20;;;1.10;;
64550;SDS011;50945;44.472;-123.352;2023-06-10T03:14:31;1.60;;;1.30;;
64550;SDS011;50945;44.472;-123.352;2023-06-10T03:16:57;14.00;;;1.65;;
64550;SDS011;50945;44.472;-123.352;2023-06-10T03:19:24;1.48;;;1.30;;
64550;SDS011;50945;44.472;-123.352;2023-06-10T03:21:58;3.38;;;1.20;;
64550;SDS011;50945;44.472;-123.352;2023-06-10T03:24:36;1.33;;;1.23;;
64550;SDS011;50945;44.472;-123.352;2023-06-10T03:27:08;1.33;;;1.10;;
64550;SDS011;50945;44.472;-123.352;2023-06-10T03:29:36;1.20;;;1.10;;
64550;SDS011;50945;44.472;-123.352;2023-06-10T03:32:03;2.75;;;1.27;;
64550;SDS011;50945;44.472;-123.352;2023-06-10T03:34:29;2.53;;;1.00;;
64550;SDS011;50945;44.472;-123.352;2023-06-10T03:36:56;4.07;;;1.40;;
64550;SDS011;50945;44.472;-123.352;2023-06-10T03:39:25;1.00;;;1.00;;
64550;SDS011;50945;44.472;-123.352;2023-06-10T03:41:54;1.88;;;0.95;;
64550;SDS011;50945;44.472;-123.352;2023-06-10T03:44:24;1.17;;;1.08;;
64550;SDS011;50945;44.472;-123.352;2023-06-10T03:46:51;1.85;;;1.00;;
64550;SDS011;50945;44.472;-123.352;2023-06-10T03:49:18;1.50;;;1.17;;
64550;SDS011;50945;44.472;-123.352;2023-06-10T03:51:44;2.45;;;1.33;;
64550;SDS011;50945;44.472;-123.352;2023-06-10T03:54:10;1.50;;;1.40;;
64550;SDS011;50945;44.472;-123.352;2023-06-10T03:56:36;1.15;;;1.08;;
64550;SDS011;50945;44.472;-123.352;2023-06-10T03:59:04;1.15;;;1.02;;
64550;SDS011;50945;44.472;-123.352;2023-06-10T04:03:56;0.90;;;0.90;;
64550;SDS011;50945;44.472;-123.352;2023-06-10T04:06:23;4.25;;;1.50;;
64550;SDS011;50945;44.472;-123.352;2023-06-10T04:08:50;1.65;;;1.08;;
64550;SDS011;50945;44.472;-123.352;2023-06-10T04:11:16;2.05;;;1.20;;
64550;SDS011;50945;44.472;-123.352;2023-06-10T04:13:43;2.33;;;1.35;;
64550;SDS011;50945;44.472;-123.352;2023-06-10T04:16:09;1.02;;;0.90;;
64550;SDS011;50945;44.472;-123.352;2023-06-10T04:21:02;1.23;;;1.02;;
64550;SDS011;50945;44.472;-123.352;2023-06-10T04:23:28;1.60;;;1.50;;
64550;SDS011;50945;44.472;-123.352;2023-06-10T04:25:54;2.33;;;1.00;;
64550;SDS011;50945;44.472;-123.352;2023-06-10T04:28:20;3.50;;;1.23;;
64550;SDS011;50945;44.472;-123.352;2023-06-10T04:30:46;1.08;;;1.00;;
64550;SDS011;50945;44.472;-123.352;2023-06-10T04:33:12;1.38;;;1.10;;
64550;SDS011;50945;44.472;-123.352;2023-06-10T04:35:39;1.25;;;1.17;;
64550;SDS011;50945;44.472;-123.352;2023-06-10T04:38:05;1.50;;;1.20;;
64550;SDS011;50945;44.472;-123.352;2023-06-10T04:40:31;2.63;;;1.40;;
64550;SDS011;50945;44.472;-123.352;2023-06-10T04:42:57;1.75;;;1.10;;
64550;SDS011;50945;44.472;-123.352;2023-06-10T04:45:23;1.50;;;1.17;;
64550;SDS011;50945;44.472;-123.352;2023-06-10T04:47:50;1.35;;;1.00;;
64550;SDS011;50945;44.472;-123.352;2023-06-10T04:50:16;2.55;;;1.35;;
64550;SDS011;50945;44.472;-123.352;2023-06-10T04:52:43;1.40;;;1.30;;
64550;SDS011;50945;44.472;-123.352;2023-06-10T04:55:09;1.27;;;1.20;;
64550;SDS011;50945;44.472;-123.352;2023-06-10T04:57:36;1.40;;;1.30;;
64550;SDS011;50945;44.472;-123.352;2023-06-10T05:00:03;1.27;;;1.20;;
64550;SDS011;50945;44.472;-123.352;2023-06-10T05:02:31;1.40;;;1.30;;
64550;SDS011;50945;44.472;-123.352;2023-06-10T05:04:57;1.35;;;1.30;;
64550;SDS011;50945;44.472;-123.352;2023-06-10T05:07:23;2.70;;;1.27;;
64550;SDS011;50945;44.472;-123.352;2023-06-10T05:09:50;3.22;;;1.58;;
64550;SDS011;50945;44.472;-123.352;2023-06-10T05:12:16;2.22;;;1.40;;
64550;SDS011;50945;44.472;-123.352;2023-06-10T05:14:42;4.05;;;1.33;;
64550;SDS011;50945;44.472;-123.352;2023-06-10T05:17:10;2.58;;;1.40;;
64550;SDS011;50945;44.472;-123.352;2023-06-10T05:19:38;2.38;;;1.02;;
64550;SDS011;50945;44.472;-123.352;2023-06-10T05:22:04;1.15;;;1.05;;
64550;SDS011;50945;44.472;-123.352;2023-06-10T05:24:30;1.30;;;1.30;;
64550;SDS011;50945;44.472;-123.352;2023-06-10T05:26:57;2.90;;;1.40;;
64550;SDS011;50945;44.472;-123.352;2023-06-10T05:29:23;1.00;;;1.00;;
64550;SDS011;50945;44.472;-123.352;2023-06-10T05:31:49;1.40;;;1.35;;
64550;SDS011;50945;44.472;-123.352;2023-06-10T05:34:15;2.28;;;1.15;;
64550;SDS011;50945;44.472;-123.352;2023-06-10T05:36:41;1.45;;;1.35;;
64550;SDS011;50945;44.472;-123.352;2023-06-10T05:39:08;0.98;;;0.98;;
64550;SDS011;50945;44.472;-123.352;2023-06-10T05:41:35;1.88;;;1.08;;
64550;SDS011;50945;44.472;-123.352;2023-06-10T05:44:01;1.00;;;1.00;;
64550;SDS011;50945;44.472;-123.352;2023-06-10T05:46:30;4.10;;;1.60;;
64550;SDS011;50945;44.472;-123.352;2023-06-10T05:48:56;3.08;;;1.67;;
64550;SDS011;50945;44.472;-123.352;2023-06-10T05:51:22;1.25;;;1.25;;
64550;SDS011;50945;44.472;-123.352;2023-06-10T05:53:48;2.20;;;1.50;;
64550;SDS011;50945;44.472;-123.352;2023-06-10T05:56:14;1.65;;;1.55;;
64550;SDS011;50945;44.472;-123.352;2023-06-10T05:58:41;1.67;;;1.20;;
64550;SDS011;50945;44.472;-123.352;2023-06-10T06:01:07;1.40;;;1.30;;
64550;SDS011;50945;44.472;-123.352;2023-06-10T06:03:33;1.73;;;1.48;;
64550;SDS011;50945;44.472;-123.352;2023-06-10T06:05:59;1.42;;;1.17;;
64550;SDS011;50945;44.472;-123.352;2023-06-10T06:08:25;3.45;;;1.40;;
64550;SDS011;50945;44.472;-123.352;2023-06-10T06:10:52;3.20;;;1.67;;
64550;SDS011;50945;44.472;-123.352;2023-06-10T06:13:18;3.15;;;1.27;;
64550;SDS011;50945;44.472;-123.352;2023-06-10T06:15:44;2.15;;;1.77;;
64550;SDS011;50945;44.472;-123.352;2023-06-10T06:18:10;4.20;;;1.60;;
64550;SDS011;50945;44.472;-123.352;2023-06-10T06:20:36;1.58;;;1.48;;
64550;SDS011;50945;44.472;-123.352;2023-06-10T06:23:02;2.70;;;1.38;;
64550;SDS011;50945;44.472;-123.352;2023-06-10T06:25:29;1.23;;;1.23;;
64550;SDS011;50945;44.472;-123.352;2023-06-10T06:27:55;2.63;;;1.20;;
64550;SDS011;50945;44.472;-123.352;2023-06-10T06:30:21;2.65;;;1.40;;
64550;SDS011;50945;44.472;-123.352;2023-06-10T06:32:47;1.55;;;1.40;;
64550;SDS011;50945;44.472;-123.352;2023-06-10T06:35:14;3.65;;;1.67;;
64550;SDS011;50945;44.472;-123.352;2023-06-10T06:37:40;3.65;;;1.83;;
64550;SDS011;50945;44.472;-123.352;2023-06-10T06:40:06;3.35;;;1.60;;
64550;SDS011;50945;44.472;-123.352;2023-06-10T06:42:33;2.95;;;1.40;;
64550;SDS011;50945;44.472;-123.352;2023-06-10T06:44:59;1.92;;;1.67;;
64550;SDS011;50945;44.472;-123.352;2023-06-10T06:47:25;4.47;;;1.73;;
64550;SDS011;50945;44.472;-123.352;2023-06-10T06:49:51;3.53;;;1.98;;
64550;SDS011;50945;44.472;-123.352;2023-06-10T06:52:18;4.53;;;2.28;;
64550;SDS011;50945;44.472;-123.352;2023-06-10T06:54:44;2.97;;;1.63;;
64550;SDS011;50945;44.472;-123.352;2023-06-10T06:57:10;5.18;;;2.33;;
64550;SDS011;50945;44.472;-123.352;2023-06-10T06:59:36;2.92;;;1.50;;
64550;SDS011;50945;44.472;-123.352;2023-06-10T07:02:03;4.78;;;1.80;;
64550;SDS011;50945;44.472;-123.352;2023-06-10T07:04:29;4.22;;;2.08;;
64550;SDS011;50945;44.472;-123.352;2023-06-10T07:06:56;2.25;;;2.05;;
64550;SDS011;50945;44.472;-123.352;2023-06-10T07:09:22;3.50;;;1.67;;
64550;SDS011;50945;44.472;-123.352;2023-06-10T07:11:48;2.70;;;2.03;;
64550;SDS011;50945;44.472;-123.352;2023-06-10T07:14:14;2.97;;;2.22;;
64550;SDS011;50945;44.472;-123.352;2023-06-10T07:16:41;2.88;;;1.83;;
64550;SDS011;50945;44.472;-123.352;2023-06-10T07:19:07;2.72;;;1.77;;
64550;SDS011;50945;44.472;-123.352;2023-06-10T07:21:33;5.90;;;2.20;;
64550;SDS011;50945;44.472;-123.352;2023-06-10T07:23:59;4.72;;;2.35;;
64550;SDS011;50945;44.472;-123.352;2023-06-10T07:26:25;4.75;;;2.88;;
64550;SDS011;50945;44.472;-123.352;2023-06-10T07:28:52;4.57;;;2.47;;
64550;SDS011;50945;44.472;-123.352;2023-06-10T07:31:18;2.58;;;2.38;;
64550;SDS011;50945;44.472;-123.352;2023-06-10T07:33:44;7.40;;;2.20;;
64550;SDS011;50945;44.472;-123.352;2023-06-10T07:36:10;4.22;;;2.10;;
64550;SDS011;50945;44.472;-123.352;2023-06-10T07:38:36;1.95;;;1.75;;
64550;SDS011;50945;44.472;-123.352;2023-06-10T07:41:02;5.68;;;1.90;;
64550;SDS011;50945;44.472;-123.352;2023-06-10T07:43:29;3.40;;;2.00;;
64550;SDS011;50945;44.472;-123.352;2023-06-10T07:45:55;2.10;;;1.73;;
64550;SDS011;50945;44.472;-123.352;2023-06-10T07:48:21;4.68;;;2.08;;
64550;SDS011;50945;44.472;-123.352;2023-06-10T07:50:47;3.03;;;2.00;;
64550;SDS011;50945;44.472;-123.352;2023-06-10T07:53:13;10.15;;;2.33;;
64550;SDS011;50945;44.472;-123.352;2023-06-10T07:55:40;4.30;;;2.17;;
64550;SDS011;50945;44.472;-123.352;2023-06-10T07:58:06;3.20;;;2.03;;
64550;SDS011;50945;44.472;-123.352;2023-06-10T08:00:32;5.00;;;1.92;;
64550;SDS011;50945;44.472;-123.352;2023-06-10T08:02:58;6.53;;;2.30;;
64550;SDS011;50945;44.472;-123.352;2023-06-10T08:05:24;3.17;;;1.90;;
64550;SDS011;50945;44.472;-123.352;2023-06-10T08:07:51;3.40;;;1.95;;
64550;SDS011;50945;44.472;-123.352;2023-06-10T08:10:17;4.72;;;2.20;;
64550;SDS011;50945;44.472;-123.352;2023-06-10T08:12:44;2.85;;;2.03;;
64550;SDS011;50945;44.472;-123.352;2023-06-10T08:15:10;5.00;;;2.28;;
64550;SDS011;50945;44.472;-123.352;2023-06-10T08:17:37;4.00;;;1.92;;
64550;SDS011;50945;44.472;-123.352;2023-06-10T08:20:05;3.67;;;2.15;;
64550;SDS011;50945;44.472;-123.352;2023-06-10T08:22:32;2.75;;;2.03;;
64550;SDS011;50945;44.472;-123.352;2023-06-10T08:24:58;3.25;;;2.30;;
64550;SDS011;50945;44.472;-123.352;2023-06-10T08:27:25;3.88;;;1.98;;
64550;SDS011;50945;44.472;-123.352;2023-06-10T08:29:51;1.98;;;1.85;;
64550;SDS011;50945;44.472;-123.352;2023-06-10T08:32:17;3.38;;;1.98;;
64550;SDS011;50945;44.472;-123.352;2023-06-10T08:34:43;2.85;;;2.30;;
64550;SDS011;50945;44.472;-123.352;2023-06-10T08:37:09;2.65;;;2.00;;
64550;SDS011;50945;44.472;-123.352;2023-06-10T08:39:35;5.35;;;2.28;;
64550;SDS011;50945;44.472;-123.352;2023-06-10T08:44:55;2.10;;;1.77;;
64550;SDS011;50945;44.472;-123.352;2023-06-10T08:47:23;2.92;;;2.05;;
64550;SDS011;50945;44.472;-123.352;2023-06-10T08:49:51;3.60;;;1.80;;
64550;SDS011;50945;44.472;-123.352;2023-06-10T08:52:19;2.45;;;1.90;;
64550;SDS011;50945;44.472;-123.352;2023-06-10T08:54:49;2.28;;;2.05;;
64550;SDS011;50945;44.472;-123.352;2023-06-10T08:57:24;2.05;;;1.70;;
64550;SDS011;50945;44.472;-123.352;2023-06-10T08:59:55;3.55;;;1.83;;
64550;SDS011;50945;44.472;-123.352;2023-06-10T09:02:23;4.22;;;2.03;;
64550;SDS011;50945;44.472;-123.352;2023-06-10T09:04:50;1.90;;;1.80;;
64550;SDS011;50945;44.472;-123.352;2023-06-10T09:09:43;4.10;;;1.90;;
64550;SDS011;50945;44.472;-123.352;2023-06-10T09:12:10;2.80;;;1.83;;
64550;SDS011;50945;44.472;-123.352;2023-06-10T09:14:41;2.42;;;1.90;;
64550;SDS011;50945;44.472;-123.352;2023-06-10T09:17:08;2.38;;;1.75;;
64550;SDS011;50945;44.472;-123.352;2023-06-10T09:22:00;1.35;;;1.25;;
64550;SDS011;50945;44.472;-123.352;2023-06-10T09:24:27;2.08;;;1.98;;
64550;SDS011;50945;44.472;-123.352;2023-06-10T09:27:04;2.20;;;1.88;;
64550;SDS011;50945;44.472;-123.352;2023-06-10T09:29:53;3.25;;;1.77;;
64550;SDS011;50945;44.472;-123.352;2023-06-10T09:32:18;4.63;;;1.73;;
64550;SDS011;50945;44.472;-123.352;2023-06-10T09:34:45;2.20;;;1.83;;
64550;SDS011;50945;44.472;-123.352;2023-06-10T09:37:12;2.92;;;1.50;;
64550;SDS011;50945;44.472;-123.352;2023-06-10T09:39:45;1.60;;;1.50;;
64550;SDS011;50945;44.472;-123.352;2023-06-10T09:42:25;5.50;;;1.60;;
64550;SDS011;50945;44.472;-123.352;2023-06-10T09:44:52;1.70;;;1.60;;
64550;SDS011;50945;44.472;-123.352;2023-06-10T09:47:21;1.35;;;1.33;;
64550;SDS011;50945;44.472;-123.352;2023-06-10T09:49:48;2.13;;;1.55;;
64550;SDS011;50945;44.472;-123.352;2023-06-10T09:52:22;1.75;;;1.60;;
64550;SDS011;50945;44.472;-123.352;2023-06-10T09:54:50;5.00;;;1.88;;
64550;SDS011;50945;44.472;-123.352;2023-06-10T09:57:21;2.30;;;1.70;;
64550;SDS011;50945;44.472;-123.352;2023-06-10T09:59:47;2.45;;;2.00;;
64550;SDS011;50945;44.472;-123.352;2023-06-10T10:02:19;3.33;;;1.70;;
64550;SDS011;50945;44.472;-123.352;2023-06-10T10:04:45;3.47;;;1.55;;
64550;SDS011;50945;44.472;-123.352;2023-06-10T10:07:12;2.60;;;1.75;;
64550;SDS011;50945;44.472;-123.352;2023-06-10T10:09:39;2.00;;;1.90;;
64550;SDS011;50945;44.472;-123.352;2023-06-10T10:12:10;3.90;;;2.72;;
64550;SDS011;50945;44.472;-123.352;2023-06-10T10:14:37;5.50;;;1.80;;
64550;SDS011;50945;44.472;-123.352;2023-06-10T10:17:06;2.58;;;1.42;;
64550;SDS011;50945;44.472;-123.352;2023-06-10T10:19:37;2.33;;;1.50;;
64550;SDS011;50945;44.472;-123.352;2023-06-10T10:24:38;2.50;;;1.50;;
64550;SDS011;50945;44.472;-123.352;2023-06-10T10:27:17;1.67;;;1.58;;
64550;SDS011;50945;44.472;-123.352;2023-06-10T10:29:47;3.75;;;1.80;;
64550;SDS011;50945;44.472;-123.352;2023-06-10T10:32:17;3.85;;;1.70;;
64550;SDS011;50945;44.472;-123.352;2023-06-10T10:37:13;2.40;;;1.67;;
64550;SDS011;50945;44.472;-123.352;2023-06-10T10:39:40;4.28;;;1.75;;
64550;SDS011;50945;44.472;-123.352;2023-06-10T10:42:06;4.35;;;1.60;;
64550;SDS011;50945;44.472;-123.352;2023-06-10T10:44:36;4.00;;;1.75;;
64550;SDS011;50945;44.472;-123.352;2023-06-10T10:47:09;3.97;;;1.60;;
64550;SDS011;50945;44.472;-123.352;2023-06-10T10:49:37;1.95;;;1.70;;
64550;SDS011;50945;44.472;-123.352;2023-06-10T10:52:08;4.95;;;1.92;;
64550;SDS011;50945;44.472;-123.352;2023-06-10T10:54:37;3.47;;;1.90;;
64550;SDS011;50945;44.472;-123.352;2023-06-10T11:02:17;2.42;;;1.60;;
64550;SDS011;50945;44.472;-123.352;2023-06-10T11:04:47;2.10;;;1.55;;
64550;SDS011;50945;44.472;-123.352;2023-06-10T11:07:14;3.22;;;1.80;;
64550;SDS011;50945;44.472;-123.352;2023-06-10T11:15:27;2.78;;;1.65;;
64550;SDS011;50945;44.472;-123.352;2023-06-10T11:18:11;3.10;;;2.17;;
64550;SDS011;50945;44.472;-123.352;2023-06-10T11:20:58;3.83;;;1.90;;
64550;SDS011;50945;44.472;-123.352;2023-06-10T11:28:37;3.08;;;1.73;;
64550;SDS011;50945;44.472;-123.352;2023-06-10T11:31:03;2.83;;;1.90;;
64550;SDS011;50945;44.472;-123.352;2023-06-10T11:33:30;2.45;;;2.05;;
64550;SDS011;50945;44.472;-123.352;2023-06-10T11:35:57;3.42;;;1.90;;
64550;SDS011;50945;44.472;-123.352;2023-06-10T11:38:24;3.50;;;2.00;;
64550;SDS011;50945;44.472;-123.352;2023-06-10T11:40:51;3.20;;;1.83;;
64550;SDS011;50945;44.472;-123.352;2023-06-10T11:43:17;2.80;;;1.90;;
64550;SDS011;50945;44.472;-123.352;2023-06-10T11:45:44;3.00;;;1.80;;
64550;SDS011;50945;44.472;-123.352;2023-06-10T11:48:11;2.28;;;1.75;;
64550;SDS011;50945;44.472;-123.352;2023-06-10T11:50:38;3.47;;;1.80;;
64550;SDS011;50945;44.472;-123.352;2023-06-10T11:53:08;3.97;;;1.88;;
64550;SDS011;50945;44.472;-123.352;2023-06-10T11:55:44;3.92;;;1.85;;
64550;SDS011;50945;44.472;-123.352;2023-06-10T12:00:48;2.90;;;1.50;;
64550;SDS011;50945;44.472;-123.352;2023-06-10T12:03:16;2.58;;;1.92;;
64550;SDS011;50945;44.472;-123.352;2023-06-10T12:05:59;4.75;;;1.73;;
64550;SDS011;50945;44.472;-123.352;2023-06-10T12:08:29;1.95;;;1.60;;
64550;SDS011;50945;44.472;-123.352;2023-06-10T12:10:56;3.47;;;1.65;;
64550;SDS011;50945;44.472;-123.352;2023-06-10T12:15:49;3.40;;;1.85;;
64550;SDS011;50945;44.472;-123.352;2023-06-10T12:18:16;3.78;;;1.80;;
64550;SDS011;50945;44.472;-123.352;2023-06-10T12:20:45;2.28;;;1.67;;
64550;SDS011;50945;44.472;-123.352;2023-06-10T12:23:15;2.15;;;1.85;;
64550;SDS011;50945;44.472;-123.352;2023-06-10T12:25:52;1.83;;;1.67;;
64550;SDS011;50945;44.472;-123.352;2023-06-10T12:28:23;2.75;;;1.70;;
64550;SDS011;50945;44.472;-123.352;2023-06-10T12:30:50;2.90;;;2.08;;
64550;SDS011;50945;44.472;-123.352;2023-06-10T12:33:20;3.95;;;1.80;;
64550;SDS011;50945;44.472;-123.352;2023-06-10T12:35:50;2.90;;;1.88;;
64550;SDS011;50945;44.472;-123.352;2023-06-10T12:38:24;3.33;;;1.70;;
64550;SDS011;50945;44.472;-123.352;2023-06-10T12:40:59;1.90;;;1.67;;
64550;SDS011;50945;44.472;-123.352;2023-06-10T12:43:30;4.53;;;1.67;;
64550;SDS011;50945;44.472;-123.352;2023-06-10T12:46:08;3.55;;;2.15;;
64550;SDS011;50945;44.472;-123.352;2023-06-10T12:48:34;2.65;;;1.60;;
64550;SDS011;50945;44.472;-123.352;2023-06-10T12:51:01;2.00;;;1.70;;
64550;SDS011;50945;44.472;-123.352;2023-06-10T12:53:27;2.95;;;1.83;;
64550;SDS011;50945;44.472;-123.352;2023-06-10T12:55:53;4.47;;;2.03;;
64550;SDS011;50945;44.472;-123.352;2023-06-10T12:58:19;2.55;;;1.95;;
64550;SDS011;50945;44.472;-123.352;2023-06-10T13:00:47;2.55;;;1.58;;
64550;SDS011;50945;44.472;-123.352;2023-06-10T13:03:14;2.63;;;1.50;;
64550;SDS011;50945;44.472;-123.352;2023-06-10T13:05:40;4.05;;;1.50;;
64550;SDS011;50945;44.472;-123.352;2023-06-10T13:08:07;1.98;;;1.67;;
64550;SDS011;50945;44.472;-123.352;2023-06-10T13:10:35;3.63;;;1.60;;
64550;SDS011;50945;44.472;-123.352;2023-06-10T13:13:02;3.38;;;1.70;;
64550;SDS011;50945;44.472;-123.352;2023-06-10T13:15:33;2.83;;;1.65;;
64550;SDS011;50945;44.472;-123.352;2023-06-10T13:18:03;4.15;;;1.90;;
64550;SDS011;50945;44.472;-123.352;2023-06-10T13:20:30;2.28;;;1.60;;
64550;SDS011;50945;44.472;-123.352;2023-06-10T13:22:56;2.35;;;1.92;;
64550;SDS011;50945;44.472;-123.352;2023-06-10T13:25:22;1.65;;;1.50;;
64550;SDS011;50945;44.472;-123.352;2023-06-10T13:27:49;1.98;;;1.80;;
64550;SDS011;50945;44.472;-123.352;2023-06-10T13:30:15;1.90;;;1.80;;
64550;SDS011;50945;44.472;-123.352;2023-06-10T13:32:41;4.00;;;2.30;;
64550;SDS011;50945;44.472;-123.352;2023-06-10T13:35:07;4.03;;;2.08;;
64550;SDS011;50945;44.472;-123.352;2023-06-10T13:37:34;8.38;;;2.15;;
64550;SDS011;50945;44.472;-123.352;2023-06-10T13:42:27;3.33;;;2.28;;
64550;SDS011;50945;44.472;-123.352;2023-06-10T13:44:54;3.28;;;1.88;;
64550;SDS011;50945;44.472;-123.352;2023-06-10T13:47:21;3.78;;;1.92;;
64550;SDS011;50945;44.472;-123.352;2023-06-10T13:49:48;1.83;;;1.45;;
64550;SDS011;50945;44.472;-123.352;2023-06-10T13:52:14;3.15;;;1.92;;
64550;SDS011;50945;44.472;-123.352;2023-06-10T13:54:40;2.78;;;1.95;;
64550;SDS011;50945;44.472;-123.352;2023-06-10T13:57:06;2.78;;;1.88;;
64550;SDS011;50945;44.472;-123.352;2023-06-10T13:59:35;2.05;;;1.92;;
64550;SDS011;50945;44.472;-123.352;2023-06-10T14:02:01;3.40;;;2.03;;
64550;SDS011;50945;44.472;-123.352;2023-06-10T14:04:27;4.43;;;2.10;;
64550;SDS011;50945;44.472;-123.352;2023-06-10T14:06:53;2.55;;;2.20;;
64550;SDS011;50945;44.472;-123.352;2023-06-10T14:09:19;3.80;;;2.35;;
64550;SDS011;50945;44.472;-123.352;2023-06-10T14:11:45;2.40;;;2.20;;
64550;SDS011;50945;44.472;-123.352;2023-06-10T14:14:12;3.80;;;2.28;;
64550;SDS011;50945;44.472;-123.352;2023-06-10T14:16:39;3.22;;;2.20;;
64550;SDS011;50945;44.472;-123.352;2023-06-10T14:19:05;3.75;;;1.98;;
64550;SDS011;50945;44.472;-123.352;2023-06-10T14:21:32;3.80;;;2.45;;
64550;SDS011;50945;44.472;-123.352;2023-06-10T14:23:58;4.47;;;2.55;;
64550;SDS011;50945;44.472;-123.352;2023-06-10T14:26:24;3.45;;;2.20;;
64550;SDS011;50945;44.472;-123.352;2023-06-10T14:28:51;6.57;;;2.67;;
64550;SDS011;50945;44.472;-123.352;2023-06-10T14:31:17;2.90;;;2.60;;
64550;SDS011;50945;44.472;-123.352;2023-06-10T14:33:43;3.90;;;2.30;;
64550;SDS011;50945;44.472;-123.352;2023-06-10T14:36:10;3.28;;;2.25;;
64550;SDS011;50945;44.472;-123.352;2023-06-10T14:38:37;5.22;;;2.47;;
64550;SDS011;50945;44.472;-123.352;2023-06-10T14:41:03;2.72;;;2.30;;
64550;SDS011;50945;44.472;-123.352;2023-06-10T14:43:29;2.63;;;2.40;;
64550;SDS011;50945;44.472;-123.352;2023-06-10T14:45:55;2.60;;;2.40;;
64550;SDS011;50945;44.472;-123.352;2023-06-10T14:48:22;5.22;;;2.50;;
64550;SDS011;50945;44.472;-123.352;2023-06-10T14:50:48;4.70;;;3.00;;
64550;SDS011;50945;44.472;-123.352;2023-06-10T14:53:17;5.97;;;2.95;;
64550;SDS011;50945;44.472;-123.352;2023-06-10T14:55:43;3.33;;;3.03;;
64550;SDS011;50945;44.472;-123.352;2023-06-10T14:58:10;3.08;;;2.88;;
64550;SDS011;50945;44.472;-123.352;2023-06-10T15:00:36;5.18;;;3.10;;
64550;SDS011;50945;44.472;-123.352;2023-06-10T15:03:02;4.40;;;2.25;;
64550;SDS011;50945;44.472;-123.352;2023-06-10T15:05:29;3.28;;;2.60;;
64550;SDS011;50945;44.472;-123.352;2023-06-10T15:07:55;6.03;;;2.97;;
64550;SDS011;50945;44.472;-123.352;2023-06-10T15:10:21;4.68;;;2.70;;